createdAt,value
2023-02-02T00:00:21.213Z,1.73
2023-02-02T00:01:24.133Z,2.55
2023-02-02T00:02:25.972Z,2.42
2023-02-02T00:03:27.839Z,2.50
2023-02-02T00:04:35.477Z,2.30
2023-02-02T00:05:37.788Z,1.85
2023-02-02T00:06:39.600Z,1.92
2023-02-02T00:07:41.382Z,2.10
2023-02-02T00:08:43.460Z,2.20
2023-02-02T00:09:45.384Z,2.53
2023-02-02T00:10:48.058Z,2.28
2023-02-02T00:11:51.212Z,2.65
2023-02-02T00:12:54.099Z,2.13
2023-02-02T00:13:55.946Z,2.20
2023-02-02T00:14:58.276Z,2.00
2023-02-02T00:16:41.087Z,1.90
2023-02-02T00:17:42.981Z,2.00
2023-02-02T00:18:44.784Z,1.80
2023-02-02T00:19:46.918Z,2.28
2023-02-02T00:20:51.736Z,2.28
2023-02-02T00:21:55.150Z,2.38
2023-02-02T00:22:57.544Z,2.30
2023-02-02T00:23:59.397Z,2.17
2023-02-02T00:25:01.192Z,2.75
2023-02-02T00:26:03.123Z,2.17
2023-02-02T00:27:05.241Z,2.03
2023-02-02T00:28:07.101Z,1.58
2023-02-02T00:29:17.630Z,1.83
2023-02-02T00:30:19.721Z,2.47
2023-02-02T00:31:21.949Z,2.53
2023-02-02T00:32:24.002Z,2.38
2023-02-02T00:33:25.780Z,1.92
2023-02-02T00:34:27.557Z,2.08
2023-02-02T00:35:29.688Z,2.30
2023-02-02T00:36:31.612Z,2.70
2023-02-02T00:37:33.839Z,2.25
2023-02-02T00:38:37.881Z,2.50
2023-02-02T00:39:39.793Z,2.33
2023-02-02T00:40:41.582Z,2.60
2023-02-02T00:41:43.370Z,2.20
2023-02-02T00:42:49.253Z,2.53
2023-02-02T00:44:11.007Z,2.72
2023-02-02T00:45:17.270Z,2.60
2023-02-02T00:46:19.165Z,2.35
2023-02-02T00:47:20.991Z,2.15
2023-02-02T00:48:23.187Z,2.67
2023-02-02T00:49:25.402Z,2.22
2023-02-02T00:50:27.405Z,2.00
2023-02-02T00:51:29.504Z,2.33
2023-02-02T00:52:31.313Z,2.00
2023-02-02T00:53:33.193Z,2.20
2023-02-02T00:54:35.044Z,1.98
2023-02-02T00:55:36.963Z,2.75
2023-02-02T00:56:38.868Z,1.95
2023-02-02T00:57:41.434Z,2.40
2023-02-02T00:58:43.439Z,2.08
2023-02-02T00:59:45.286Z,2.20
2023-02-02T01:00:47.219Z,2.08
2023-02-02T01:01:49.341Z,2.22
2023-02-02T01:04:21.794Z,2.03
2023-02-02T01:05:24.397Z,2.72
2023-02-02T01:06:26.570Z,2.22
2023-02-02T01:07:28.633Z,2.58
2023-02-02T01:08:30.593Z,2.00
2023-02-02T01:09:32.496Z,2.05
2023-02-02T01:10:35.179Z,2.13
2023-02-02T01:11:37.765Z,2.30
2023-02-02T01:12:40.028Z,2.38
2023-02-02T01:13:42.054Z,2.50
2023-02-02T01:14:44.088Z,2.15
2023-02-02T01:15:46.054Z,2.28
2023-02-02T01:16:48.493Z,2.90
2023-02-02T01:17:50.615Z,2.00
2023-02-02T01:18:53.236Z,1.55
2023-02-02T01:19:55.198Z,2.25
2023-02-02T01:21:09.057Z,3.00
2023-02-02T01:22:11.054Z,2.30
2023-02-02T01:23:13.109Z,2.38
2023-02-02T01:24:15.311Z,2.60
2023-02-02T01:25:17.525Z,2.45
2023-02-02T01:26:19.481Z,2.53
2023-02-02T01:27:21.551Z,2.28
2023-02-02T01:28:24.334Z,1.85
2023-02-02T01:29:26.390Z,1.92
2023-02-02T01:30:28.456Z,2.60
2023-02-02T01:31:30.412Z,2.17
2023-02-02T01:32:32.390Z,2.10
2023-02-02T01:33:34.411Z,2.40
2023-02-02T01:34:36.722Z,2.20
2023-02-02T01:35:48.093Z,1.92
2023-02-02T01:36:50.109Z,1.80
2023-02-02T01:37:52.307Z,2.05
2023-02-02T01:38:55.347Z,2.58
2023-02-02T01:39:57.332Z,2.17
2023-02-02T01:40:59.832Z,2.78
2023-02-02T01:42:01.981Z,3.00
2023-02-02T01:43:04.548Z,2.25
2023-02-02T01:44:27.278Z,2.00
2023-02-02T01:45:29.878Z,2.25
2023-02-02T01:46:32.961Z,2.22
2023-02-02T01:47:47.930Z,1.48
2023-02-02T01:49:15.746Z,2.42
2023-02-02T01:50:19.603Z,2.15
2023-02-02T01:51:24.844Z,2.22
2023-02-02T01:52:29.666Z,3.03
2023-02-02T01:53:32.910Z,2.13
2023-02-02T01:54:38.720Z,2.50
2023-02-02T01:55:42.470Z,2.17
2023-02-02T01:56:51.877Z,2.40
2023-02-02T01:58:09.061Z,1.88
2023-02-02T01:59:14.320Z,2.00
2023-02-02T02:00:18.953Z,1.92
2023-02-02T02:01:20.906Z,1.98
2023-02-02T02:02:25.066Z,2.08
2023-02-02T02:03:29.932Z,2.13
2023-02-02T02:04:32.835Z,1.88
2023-02-02T02:05:52.270Z,2.10
2023-02-02T02:06:54.378Z,1.92
2023-02-02T02:08:04.284Z,2.03
2023-02-02T02:09:07.479Z,2.20
2023-02-02T02:10:10.046Z,2.25
2023-02-02T02:11:12.007Z,1.77
2023-02-02T02:12:15.703Z,2.17
2023-02-02T02:13:19.494Z,2.17
2023-02-02T02:14:41.218Z,2.58
2023-02-02T02:16:20.100Z,2.45
2023-02-02T02:18:00.611Z,1.90
2023-02-02T02:19:36.846Z,2.33
2023-02-02T02:21:30.274Z,2.75
2023-02-02T02:23:22.867Z,1.77
2023-02-02T02:25:03.003Z,2.08
2023-02-02T02:26:36.668Z,2.15
2023-02-02T02:28:11.274Z,1.90
2023-02-02T02:29:50.628Z,1.92
2023-02-02T02:31:02.136Z,1.77
2023-02-02T02:32:13.028Z,3.40
2023-02-02T02:33:40.855Z,2.75
2023-02-02T02:34:53.546Z,2.40
2023-02-02T02:36:07.598Z,1.63
2023-02-02T02:37:23.267Z,1.88
2023-02-02T02:38:38.288Z,2.22
2023-02-02T02:39:49.162Z,3.55
2023-02-02T02:41:03.767Z,1.75
2023-02-02T02:42:13.777Z,2.55
2023-02-02T02:43:19.857Z,2.00
2023-02-02T02:44:23.086Z,2.28
2023-02-02T02:45:28.321Z,1.98
2023-02-02T02:46:31.188Z,2.72
2023-02-02T02:47:35.092Z,1.77
2023-02-02T02:48:37.457Z,2.13
2023-02-02T02:49:43.935Z,1.13
2023-02-02T02:50:45.943Z,1.70
2023-02-02T02:51:49.518Z,1.90
2023-02-02T02:53:00.738Z,2.67
2023-02-02T02:54:03.306Z,2.65
2023-02-02T02:55:07.355Z,1.50
2023-02-02T02:56:22.753Z,2.53
2023-02-02T02:57:39.863Z,1.75
2023-02-02T03:00:11.411Z,0.80
2023-02-02T03:01:32.228Z,1.70
2023-02-02T03:02:42.757Z,2.42
2023-02-02T03:04:12.969Z,2.38
2023-02-02T03:05:20.749Z,1.90
2023-02-02T03:06:34.632Z,1.77
2023-02-02T03:07:43.637Z,0.95
2023-02-02T03:09:00.919Z,2.10
2023-02-02T03:10:06.639Z,2.00
2023-02-02T03:11:11.547Z,2.72
2023-02-02T03:12:16.051Z,1.27
2023-02-02T03:13:18.447Z,1.13
2023-02-02T03:14:20.575Z,2.63
2023-02-02T03:15:23.057Z,1.15
2023-02-02T03:16:25.144Z,1.33
2023-02-02T03:17:28.387Z,1.50
2023-02-02T03:18:33.030Z,1.60
2023-02-02T03:19:35.196Z,2.33
2023-02-02T03:20:37.328Z,2.08
2023-02-02T03:21:39.269Z,2.25
2023-02-02T03:22:41.169Z,1.60
2023-02-02T03:23:43.167Z,1.73
2023-02-02T03:24:45.138Z,1.63
2023-02-02T03:25:47.994Z,2.25
2023-02-02T03:26:50.078Z,1.75
2023-02-02T03:27:52.826Z,2.50
2023-02-02T03:28:57.540Z,2.53
2023-02-02T03:30:00.049Z,1.58
2023-02-02T03:31:02.596Z,1.90
2023-02-02T03:32:04.947Z,2.65
2023-02-02T03:33:07.518Z,1.50
2023-02-02T03:34:09.616Z,2.30
2023-02-02T03:35:11.612Z,1.20
2023-02-02T03:36:13.769Z,2.08
2023-02-02T03:37:16.440Z,1.90
2023-02-02T03:38:18.434Z,2.17
2023-02-02T03:39:20.413Z,2.13
2023-02-02T03:40:22.426Z,2.00
2023-02-02T03:41:25.552Z,1.40
2023-02-02T03:42:27.607Z,2.75
2023-02-02T03:43:29.495Z,2.10
2023-02-02T03:44:31.492Z,1.75
2023-02-02T03:45:35.590Z,2.33
2023-02-02T03:46:37.673Z,2.17
2023-02-02T03:47:39.732Z,2.25
2023-02-02T03:48:41.997Z,1.88
2023-02-02T03:49:44.039Z,2.00
2023-02-02T03:50:46.119Z,2.15
2023-02-02T03:51:48.391Z,2.58
2023-02-02T03:52:50.467Z,2.15
2023-02-02T03:53:52.617Z,2.67
2023-02-02T03:54:54.858Z,2.17
2023-02-02T03:55:56.845Z,2.40
2023-02-02T03:56:58.801Z,1.80
2023-02-02T03:58:00.742Z,2.38
2023-02-02T03:59:02.916Z,1.98
2023-02-02T04:00:05.624Z,2.42
2023-02-02T04:01:11.677Z,1.83
2023-02-02T04:02:13.691Z,2.10
2023-02-02T04:03:15.651Z,1.83
2023-02-02T04:04:17.760Z,2.10
2023-02-02T04:05:19.799Z,1.83
2023-02-02T04:06:22.330Z,1.73
2023-02-02T04:07:24.543Z,2.47
2023-02-02T04:08:28.875Z,1.80
2023-02-02T04:09:33.261Z,2.00
2023-02-02T04:10:35.241Z,3.03
2023-02-02T04:11:38.862Z,3.05
2023-02-02T04:12:41.430Z,2.15
2023-02-02T04:13:46.123Z,2.13
2023-02-02T04:14:48.210Z,1.80
2023-02-02T04:15:58.113Z,2.10
2023-02-02T04:17:00.153Z,1.58
2023-02-02T04:18:02.251Z,2.22
2023-02-02T04:19:05.269Z,3.00
2023-02-02T04:20:07.803Z,2.38
2023-02-02T04:21:09.851Z,2.80
2023-02-02T04:22:11.942Z,2.22
2023-02-02T04:23:14.400Z,3.10
2023-02-02T04:24:16.704Z,2.10
2023-02-02T04:25:18.618Z,2.08
2023-02-02T04:26:20.936Z,1.70
2023-02-02T04:27:23.387Z,2.72
2023-02-02T04:28:26.688Z,2.15
2023-02-02T04:29:28.618Z,2.63
2023-02-02T04:30:30.892Z,2.38
2023-02-02T04:31:33.142Z,2.15
2023-02-02T04:32:36.350Z,2.97
2023-02-02T04:33:38.240Z,2.88
2023-02-02T04:34:40.307Z,2.47
2023-02-02T04:35:45.663Z,2.10
2023-02-02T04:36:47.818Z,3.47
2023-02-02T04:37:49.805Z,2.45
2023-02-02T04:38:53.023Z,2.85
2023-02-02T04:39:55.541Z,2.17
2023-02-02T04:41:00.024Z,1.73
2023-02-02T04:43:06.151Z,1.85
2023-02-02T04:44:17.050Z,2.47
2023-02-02T04:45:19.106Z,2.58
2023-02-02T04:46:21.066Z,2.25
2023-02-02T04:47:22.957Z,2.05
2023-02-02T04:48:25.052Z,2.33
2023-02-02T04:49:27.124Z,2.40
2023-02-02T04:50:29.658Z,2.53
2023-02-02T04:51:31.829Z,2.72
2023-02-02T04:52:33.990Z,1.98
2023-02-02T04:53:36.580Z,2.60
2023-02-02T04:54:38.850Z,2.05
2023-02-02T04:55:40.937Z,2.47
2023-02-02T04:56:42.962Z,2.40
2023-02-02T04:57:44.993Z,2.53
2023-02-02T04:58:49.670Z,2.50
2023-02-02T04:59:51.683Z,2.03
2023-02-02T05:00:53.757Z,2.00
2023-02-02T05:01:59.742Z,1.83
2023-02-02T05:03:01.736Z,2.75
2023-02-02T05:04:03.861Z,2.53
2023-02-02T05:05:10.594Z,2.38
2023-02-02T05:06:15.548Z,2.58
2023-02-02T05:07:18.094Z,2.30
2023-02-02T05:08:20.039Z,1.42
2023-02-02T05:09:22.208Z,2.65
2023-02-02T05:10:24.230Z,2.50
2023-02-02T05:11:26.192Z,2.60
2023-02-02T05:12:30.812Z,2.75
2023-02-02T05:13:32.882Z,3.30
2023-02-02T05:14:34.900Z,2.58
2023-02-02T05:15:36.914Z,2.08
2023-02-02T05:16:39.847Z,2.38
2023-02-02T05:17:44.159Z,2.38
2023-02-02T05:18:51.727Z,1.67
2023-02-02T05:19:53.596Z,2.15
2023-02-02T05:20:55.573Z,1.50
2023-02-02T05:21:57.540Z,2.83
2023-02-02T05:22:59.494Z,2.47
2023-02-02T05:24:03.048Z,2.90
2023-02-02T05:25:06.945Z,2.55
2023-02-02T05:26:16.014Z,2.28
2023-02-02T05:27:17.975Z,3.15
2023-02-02T05:28:21.156Z,2.63
2023-02-02T05:29:23.145Z,2.03
2023-02-02T05:30:25.197Z,2.75
2023-02-02T05:31:27.573Z,3.55
2023-02-02T05:32:29.963Z,2.50
2023-02-02T05:33:32.528Z,2.60
2023-02-02T05:34:34.435Z,2.65
2023-02-02T05:35:36.484Z,2.95
2023-02-02T05:36:38.426Z,2.50
2023-02-02T05:37:43.373Z,1.92
2023-02-02T05:38:45.429Z,3.28
2023-02-02T05:39:47.418Z,2.50
2023-02-02T05:40:50.025Z,1.98
2023-02-02T05:41:54.377Z,2.50
2023-02-02T05:42:56.312Z,2.22
2023-02-02T05:44:02.045Z,2.20
2023-02-02T05:45:04.290Z,2.47
2023-02-02T05:46:06.496Z,2.80
2023-02-02T05:47:09.526Z,2.22
2023-02-02T05:48:14.995Z,2.33
2023-02-02T05:49:17.123Z,2.40
2023-02-02T05:50:19.245Z,2.28
2023-02-02T05:51:33.719Z,2.15
2023-02-02T05:52:38.513Z,3.80
2023-02-02T05:53:40.625Z,2.38
2023-02-02T05:54:42.558Z,2.47
2023-02-02T05:55:47.003Z,2.50
2023-02-02T05:56:50.955Z,3.03
2023-02-02T05:57:52.882Z,2.35
2023-02-02T05:58:55.126Z,2.80
2023-02-02T05:59:57.190Z,2.30
2023-02-02T06:00:59.127Z,1.95
2023-02-02T06:02:01.297Z,2.03
2023-02-02T06:03:05.392Z,2.47
2023-02-02T06:04:07.599Z,2.42
2023-02-02T06:05:09.944Z,2.70
2023-02-02T06:06:13.028Z,2.75
2023-02-02T06:07:15.063Z,1.48
2023-02-02T06:08:17.089Z,2.40
2023-02-02T06:09:19.312Z,2.05
2023-02-02T06:10:21.223Z,2.17
2023-02-02T06:11:23.323Z,2.38
2023-02-02T06:12:25.488Z,2.40
2023-02-02T06:13:27.558Z,1.90
2023-02-02T06:14:29.704Z,1.85
2023-02-02T06:15:33.246Z,2.08
2023-02-02T06:16:35.390Z,2.50
2023-02-02T06:17:37.464Z,2.60
2023-02-02T06:18:39.502Z,2.63
2023-02-02T06:19:41.460Z,2.95
2023-02-02T06:20:43.518Z,2.83
2023-02-02T06:21:45.513Z,3.25
2023-02-02T06:22:48.669Z,2.90
2023-02-02T06:23:51.587Z,2.25
2023-02-02T06:24:53.657Z,1.83
2023-02-02T06:25:55.668Z,2.63
2023-02-02T06:26:57.650Z,2.28
2023-02-02T06:28:01.060Z,3.10
2023-02-02T06:29:03.204Z,2.97
2023-02-02T06:30:05.486Z,2.53
2023-02-02T06:31:11.292Z,2.67
2023-02-02T06:32:13.392Z,2.25
2023-02-02T06:33:15.692Z,2.58
2023-02-02T06:34:17.800Z,2.50
2023-02-02T06:35:20.404Z,2.58
2023-02-02T06:36:23.036Z,2.97
2023-02-02T06:37:24.997Z,3.03
2023-02-02T06:38:27.171Z,2.58
2023-02-02T06:39:29.259Z,2.90
2023-02-02T06:40:31.389Z,2.53
2023-02-02T06:41:35.510Z,2.63
2023-02-02T06:42:37.703Z,2.65
2023-02-02T06:43:39.859Z,3.90
2023-02-02T06:44:41.845Z,2.38
2023-02-02T06:45:43.847Z,4.03
2023-02-02T06:46:45.721Z,3.08
2023-02-02T06:47:47.638Z,2.33
2023-02-02T06:48:49.804Z,2.72
2023-02-02T06:49:51.842Z,2.72
2023-02-02T06:50:54.373Z,3.40
2023-02-02T06:51:56.375Z,3.05
2023-02-02T06:52:58.341Z,2.25
2023-02-02T06:54:00.350Z,4.20
2023-02-02T06:55:02.391Z,3.33
2023-02-02T06:56:07.559Z,3.80
2023-02-02T06:57:16.695Z,3.88
2023-02-02T06:58:18.888Z,3.30
2023-02-02T06:59:20.839Z,3.60
2023-02-02T07:00:22.946Z,3.45
2023-02-02T07:01:24.919Z,3.90
2023-02-02T07:02:27.151Z,4.18
2023-02-02T07:03:31.296Z,4.10
2023-02-02T07:04:33.182Z,4.68
2023-02-02T07:05:35.089Z,4.35
2023-02-02T07:06:37.029Z,3.90
2023-02-02T07:07:39.033Z,4.20
2023-02-02T07:08:41.229Z,4.35
2023-02-02T07:09:43.390Z,4.18
2023-02-02T07:11:13.314Z,4.32
2023-02-02T07:12:07.456Z,3.88
2023-02-02T07:13:09.342Z,5.20
2023-02-02T07:14:12.239Z,2.92
2023-02-02T07:15:14.289Z,3.80
2023-02-02T07:16:17.763Z,4.13
2023-02-02T07:17:22.825Z,6.25
2023-02-02T07:18:24.860Z,4.65
2023-02-02T07:19:27.027Z,3.92
2023-02-02T07:20:29.662Z,4.05
2023-02-02T07:21:36.205Z,3.17
2023-02-02T07:22:41.894Z,4.72
2023-02-02T07:23:43.917Z,3.47
2023-02-02T07:24:45.863Z,1.83
2023-02-02T07:25:47.994Z,2.45
2023-02-02T07:26:50.060Z,4.45
2023-02-02T07:27:55.570Z,3.92
2023-02-02T07:28:57.624Z,3.15
2023-02-02T07:29:59.723Z,3.20
2023-02-02T07:31:12.369Z,3.58
2023-02-02T07:32:14.471Z,2.83
2023-02-02T07:33:16.395Z,3.88
2023-02-02T07:34:18.512Z,4.75
2023-02-02T07:35:20.419Z,4.20
2023-02-02T07:36:24.588Z,4.68
2023-02-02T07:37:26.736Z,5.75
2023-02-02T07:38:28.695Z,5.05
2023-02-02T07:39:30.654Z,5.63
2023-02-02T07:40:32.843Z,5.28
2023-02-02T07:41:37.137Z,5.53
2023-02-02T07:42:39.511Z,5.22
2023-02-02T07:43:41.842Z,5.55
2023-02-02T07:44:43.793Z,6.03
2023-02-02T07:45:45.892Z,5.60
2023-02-02T07:46:48.203Z,5.70
2023-02-02T07:47:56.316Z,4.30
2023-02-02T07:48:58.373Z,6.03
2023-02-02T07:50:00.271Z,5.75
2023-02-02T07:51:03.822Z,5.97
2023-02-02T07:52:05.933Z,5.57
2023-02-02T07:53:08.002Z,7.13
2023-02-02T07:54:10.245Z,5.60
2023-02-02T07:55:14.742Z,7.40
2023-02-02T07:56:19.777Z,6.93
2023-02-02T07:57:21.734Z,6.32
2023-02-02T07:58:23.636Z,7.15
2023-02-02T07:59:25.862Z,7.32
2023-02-02T08:00:28.467Z,7.63
2023-02-02T08:01:30.573Z,6.07
2023-02-02T08:02:32.747Z,6.53
2023-02-02T08:03:36.141Z,7.47
2023-02-02T08:04:38.099Z,6.53
2023-02-02T08:05:40.131Z,6.95
2023-02-02T08:06:45.143Z,7.07
2023-02-02T08:07:48.612Z,7.05
2023-02-02T08:08:51.101Z,6.70
2023-02-02T08:09:53.036Z,7.03
2023-02-02T08:10:55.068Z,4.43
2023-02-02T08:12:01.827Z,5.90
2023-02-02T08:13:03.991Z,6.88
2023-02-02T08:14:06.617Z,7.05
2023-02-02T08:15:09.262Z,8.35
2023-02-02T08:16:12.578Z,8.02
2023-02-02T08:17:14.750Z,8.52
2023-02-02T08:18:17.265Z,9.30
2023-02-02T08:19:19.431Z,10.45
2023-02-02T08:20:21.580Z,6.72
2023-02-02T08:21:23.848Z,7.65
2023-02-02T08:22:25.816Z,7.85
2023-02-02T08:23:28.200Z,8.63
2023-02-02T08:24:30.107Z,6.20
2023-02-02T08:25:32.266Z,10.75
2023-02-02T08:26:34.411Z,4.85
2023-02-02T08:27:37.922Z,8.57
2023-02-02T08:28:41.660Z,7.55
2023-02-02T08:29:43.892Z,8.60
2023-02-02T08:30:46.635Z,8.32
2023-02-02T08:31:48.744Z,7.68
2023-02-02T08:32:50.899Z,8.00
2023-02-02T08:33:58.636Z,8.18
2023-02-02T08:35:00.877Z,8.70
2023-02-02T08:36:04.286Z,7.82
2023-02-02T08:37:06.458Z,8.15
2023-02-02T08:38:08.541Z,8.55
2023-02-02T08:39:13.088Z,8.48
2023-02-02T08:40:15.311Z,8.52
2023-02-02T08:41:19.824Z,8.77
2023-02-02T08:42:21.820Z,8.15
2023-02-02T08:43:23.857Z,9.25
2023-02-02T08:44:27.911Z,7.45
2023-02-02T08:46:03.432Z,8.60
2023-02-02T08:47:06.909Z,8.65
2023-02-02T08:48:12.186Z,10.07
2023-02-02T08:49:15.494Z,7.43
2023-02-02T08:50:18.464Z,8.52
2023-02-02T08:51:20.672Z,9.00
2023-02-02T08:52:24.848Z,7.70
2023-02-02T08:53:28.922Z,9.18
2023-02-02T08:54:30.867Z,11.32
2023-02-02T08:55:32.835Z,9.70
2023-02-02T08:56:34.825Z,11.00
2023-02-02T08:57:37.111Z,8.60
2023-02-02T08:58:39.579Z,10.02
2023-02-02T08:59:41.580Z,9.60
2023-02-02T09:00:43.596Z,9.27
2023-02-02T09:01:45.645Z,10.32
2023-02-02T09:02:51.517Z,9.95
2023-02-02T09:04:16.388Z,10.02
2023-02-02T09:05:18.937Z,10.32
2023-02-02T09:06:21.487Z,10.77
2023-02-02T09:07:23.508Z,10.32
2023-02-02T09:08:25.654Z,10.35
2023-02-02T09:09:27.614Z,11.05
2023-02-02T09:10:32.204Z,9.48
2023-02-02T09:11:35.275Z,9.05
2023-02-02T09:12:37.207Z,10.50
2023-02-02T09:13:40.517Z,10.23
2023-02-02T09:14:42.420Z,10.38
2023-02-02T09:15:44.632Z,11.15
2023-02-02T09:16:46.692Z,11.05
2023-02-02T09:17:48.952Z,10.57
2023-02-02T09:18:50.957Z,10.90
2023-02-02T09:19:52.912Z,11.73
2023-02-02T09:20:55.004Z,11.95
2023-02-02T09:21:57.303Z,11.32
2023-02-02T09:22:59.224Z,12.20
2023-02-02T09:24:01.394Z,12.50
2023-02-02T09:25:03.438Z,9.32
2023-02-02T09:26:17.270Z,11.90
2023-02-02T09:27:20.202Z,12.85
2023-02-02T09:28:22.199Z,8.82
2023-02-02T09:29:24.253Z,10.40
2023-02-02T09:30:26.500Z,11.57
2023-02-02T09:31:29.635Z,11.45
2023-02-02T09:32:34.284Z,10.27
2023-02-02T09:33:37.172Z,12.25
2023-02-02T09:34:40.194Z,11.60
2023-02-02T09:35:43.190Z,13.38
2023-02-02T09:36:45.436Z,11.32
2023-02-02T09:37:47.582Z,13.25
2023-02-02T09:38:51.205Z,10.63
2023-02-02T09:39:53.314Z,9.48
2023-02-02T09:40:55.293Z,15.10
2023-02-02T09:42:09.346Z,12.20
2023-02-02T09:43:42.968Z,16.25
2023-02-02T09:45:02.613Z,9.38
2023-02-02T09:46:40.682Z,11.98
2023-02-02T09:47:45.547Z,12.20
2023-02-02T09:49:08.363Z,11.38
2023-02-02T09:50:29.834Z,13.48
2023-02-02T09:51:43.841Z,11.98
2023-02-02T09:52:59.827Z,11.85
2023-02-02T09:54:28.151Z,13.40
2023-02-02T09:55:36.873Z,12.88
2023-02-02T09:56:43.793Z,11.63
2023-02-02T09:58:01.775Z,13.50
2023-02-02T09:59:19.374Z,13.80
2023-02-02T10:01:07.126Z,13.48
2023-02-02T10:02:40.784Z,11.48
2023-02-02T10:04:04.446Z,12.27
2023-02-02T10:05:15.476Z,12.48
2023-02-02T10:06:43.976Z,11.93
2023-02-02T10:07:52.281Z,12.82
2023-02-02T10:08:59.255Z,12.07
2023-02-02T10:11:55.721Z,9.68
2023-02-02T10:13:06.933Z,9.30
2023-02-02T10:14:20.447Z,11.93
2023-02-02T10:15:44.659Z,11.07
2023-02-02T10:16:49.809Z,11.73
2023-02-02T10:17:57.197Z,9.45
2023-02-02T10:19:10.195Z,12.95
2023-02-02T10:20:33.644Z,11.55
2023-02-02T10:21:35.987Z,8.20
2023-02-02T10:22:38.227Z,8.07
2023-02-02T10:23:44.445Z,10.63
2023-02-02T10:24:46.459Z,11.07
2023-02-02T10:26:22.623Z,6.60
2023-02-02T10:28:09.389Z,11.85
2023-02-02T10:29:11.223Z,9.68
2023-02-02T10:30:30.289Z,9.88
2023-02-02T10:31:32.304Z,9.35
2023-02-02T10:32:49.756Z,8.20
2023-02-02T10:34:16.462Z,10.48
2023-02-02T10:35:27.602Z,10.43
2023-02-02T10:36:40.227Z,9.18
2023-02-02T10:38:12.065Z,10.23
2023-02-02T10:39:36.187Z,10.90
2023-02-02T10:40:44.262Z,9.93
2023-02-02T10:42:23.103Z,7.07
2023-02-02T10:43:46.332Z,8.68
2023-02-02T10:45:08.725Z,8.50
2023-02-02T10:46:26.293Z,8.55
2023-02-02T10:47:32.360Z,9.40
2023-02-02T10:48:36.153Z,8.65
2023-02-02T10:49:40.275Z,8.60
2023-02-02T10:50:49.040Z,10.13
2023-02-02T10:52:13.914Z,10.65
2023-02-02T10:53:17.225Z,7.85
2023-02-02T10:54:55.816Z,9.60
2023-02-02T10:56:12.237Z,8.38
2023-02-02T10:57:20.015Z,7.90
2023-02-02T10:58:30.827Z,7.97
2023-02-02T10:59:36.041Z,7.78
2023-02-02T11:00:54.669Z,9.18
2023-02-02T11:02:08.637Z,8.30
2023-02-02T11:03:20.325Z,9.50
2023-02-02T11:04:41.903Z,11.27
2023-02-02T11:06:03.748Z,8.00
2023-02-02T11:07:05.758Z,9.52
2023-02-02T11:08:20.297Z,9.32
2023-02-02T11:09:26.592Z,9.77
2023-02-02T11:10:28.821Z,10.38
2023-02-02T11:11:40.061Z,10.70
2023-02-02T11:12:46.988Z,10.48
2023-02-02T11:14:15.679Z,10.13
2023-02-02T11:15:25.921Z,7.65
2023-02-02T11:16:41.437Z,9.10
2023-02-02T11:17:44.443Z,8.48
2023-02-02T11:18:46.585Z,9.30
2023-02-02T11:19:50.006Z,9.55
2023-02-02T11:20:52.030Z,9.43
2023-02-02T11:21:57.384Z,9.85
2023-02-02T11:23:04.464Z,8.60
2023-02-02T11:24:23.667Z,11.13
2023-02-02T11:25:37.189Z,8.55
2023-02-02T11:26:49.165Z,9.95
2023-02-02T11:27:51.902Z,9.80
2023-02-02T11:28:58.707Z,7.13
2023-02-02T11:30:22.995Z,9.13
2023-02-02T11:31:37.478Z,7.70
2023-02-02T11:32:39.630Z,8.10
2023-02-02T11:33:41.549Z,10.20
2023-02-02T11:34:43.559Z,10.10
2023-02-02T11:35:57.311Z,12.25
2023-02-02T11:37:22.270Z,10.88
2023-02-02T11:38:24.957Z,8.18
2023-02-02T11:39:28.130Z,9.75
2023-02-02T11:40:34.876Z,9.02
2023-02-02T11:41:38.706Z,6.78
2023-02-02T11:42:47.781Z,8.85
2023-02-02T11:43:55.358Z,9.35
2023-02-02T11:44:59.301Z,8.73
2023-02-02T11:46:17.939Z,9.20
2023-02-02T11:47:28.078Z,11.95
2023-02-02T11:48:38.646Z,7.40
2023-02-02T11:49:44.298Z,9.50
2023-02-02T11:50:49.628Z,9.10
2023-02-02T11:52:00.589Z,10.57
2023-02-02T11:53:02.868Z,9.45
2023-02-02T11:54:18.365Z,9.68
2023-02-02T11:55:27.357Z,9.00
2023-02-02T11:56:29.543Z,10.63
2023-02-02T11:57:31.748Z,8.95
2023-02-02T11:58:56.722Z,10.05
2023-02-02T12:00:10.731Z,8.93
2023-02-02T12:01:32.682Z,8.02
2023-02-02T12:02:34.838Z,8.80
2023-02-02T12:03:40.248Z,11.15
2023-02-02T12:04:42.486Z,8.20
2023-02-02T12:05:48.324Z,11.55
2023-02-02T12:06:50.580Z,9.95
2023-02-02T12:07:52.642Z,10.48
2023-02-02T12:08:58.729Z,9.55
2023-02-02T12:10:04.782Z,9.15
2023-02-02T12:11:10.610Z,10.60
2023-02-02T12:13:14.292Z,12.60
2023-02-02T12:14:43.326Z,12.05
2023-02-02T12:15:59.056Z,9.82
2023-02-02T12:17:00.978Z,9.73
2023-02-02T12:18:31.067Z,11.75
2023-02-02T12:19:56.599Z,10.63
2023-02-02T12:21:03.170Z,14.23
2023-02-02T12:22:30.636Z,7.15
2023-02-02T12:23:51.746Z,12.32
2023-02-02T12:25:03.634Z,10.45
2023-02-02T12:26:29.597Z,13.68
2023-02-02T12:27:57.919Z,13.82
2023-02-02T12:29:51.053Z,11.25
2023-02-02T12:31:07.213Z,11.18
2023-02-02T12:32:24.743Z,11.57
2023-02-02T12:33:39.541Z,11.13
2023-02-02T12:35:06.925Z,15.93
2023-02-02T12:36:27.491Z,12.32
2023-02-02T12:37:54.788Z,11.90
2023-02-02T12:39:17.384Z,11.88
2023-02-02T12:41:00.841Z,10.23
2023-02-02T12:42:27.807Z,12.60
2023-02-02T12:43:39.257Z,12.82
2023-02-02T12:44:55.870Z,12.30
2023-02-02T12:46:15.141Z,12.88
2023-02-02T12:47:35.486Z,12.90
2023-02-02T12:48:52.510Z,13.20
2023-02-02T12:51:36.292Z,10.77
2023-02-02T12:52:41.286Z,12.20
2023-02-02T12:54:35.104Z,14.50
2023-02-02T12:55:41.708Z,13.07
2023-02-02T12:57:02.054Z,14.38
2023-02-02T12:58:25.147Z,10.70
2023-02-02T12:59:42.830Z,13.75
2023-02-02T13:01:29.043Z,12.80
2023-02-02T13:02:52.198Z,13.35
2023-02-02T13:05:36.867Z,11.50
2023-02-02T13:07:02.814Z,9.60
2023-02-02T13:08:13.241Z,12.60
2023-02-02T13:09:20.472Z,14.07
2023-02-02T13:10:29.053Z,15.95
2023-02-02T13:11:56.075Z,13.82
2023-02-02T13:13:08.757Z,13.95
2023-02-02T13:14:20.535Z,12.90
2023-02-02T13:15:33.390Z,14.93
2023-02-02T13:16:38.180Z,12.65
2023-02-02T13:17:47.103Z,13.77
2023-02-02T13:18:57.105Z,14.02
2023-02-02T13:20:04.883Z,13.15
2023-02-02T13:21:15.403Z,15.68
2023-02-02T13:22:22.539Z,13.80
2023-02-02T13:23:34.234Z,9.43
2023-02-02T13:24:42.200Z,9.57
2023-02-02T13:25:52.484Z,18.13
2023-02-02T13:26:57.712Z,15.13
2023-02-02T13:28:01.020Z,16.35
2023-02-02T13:29:07.731Z,15.05
2023-02-02T13:30:31.696Z,14.40
2023-02-02T13:31:36.916Z,15.52
2023-02-02T13:32:43.909Z,15.43
2023-02-02T13:33:53.513Z,12.35
2023-02-02T13:35:03.534Z,15.88
2023-02-02T13:36:29.566Z,15.68
2023-02-02T13:37:51.802Z,12.50
2023-02-02T13:38:57.727Z,16.92
2023-02-02T13:40:03.678Z,14.25
2023-02-02T13:41:10.070Z,16.35
2023-02-02T13:42:30.759Z,14.82
2023-02-02T13:43:51.518Z,13.27
2023-02-02T13:45:00.252Z,12.45
2023-02-02T13:46:26.742Z,17.65
2023-02-02T13:47:44.814Z,14.88
2023-02-02T13:48:47.599Z,14.27
2023-02-02T13:49:58.662Z,13.18
2023-02-02T13:51:18.852Z,12.55
2023-02-02T13:52:51.091Z,12.05
2023-02-02T13:54:18.759Z,13.18
2023-02-02T13:55:34.322Z,15.80
2023-02-02T13:56:58.648Z,15.40
2023-02-02T13:58:44.619Z,13.52
2023-02-02T13:59:55.401Z,12.50
2023-02-02T14:01:03.264Z,13.73
2023-02-02T14:02:07.609Z,13.13
2023-02-02T14:04:34.405Z,12.63
2023-02-02T14:05:42.221Z,15.18
2023-02-02T14:06:58.152Z,15.60
2023-02-02T14:08:19.537Z,12.50
2023-02-02T14:09:22.206Z,13.02
2023-02-02T14:10:42.267Z,15.10
2023-02-02T14:11:56.620Z,11.02
2023-02-02T14:13:30.273Z,12.68
2023-02-02T14:14:32.432Z,13.43
2023-02-02T14:15:43.973Z,14.65
2023-02-02T14:16:50.404Z,16.75
2023-02-02T14:17:55.162Z,13.50
2023-02-02T14:19:00.889Z,13.93
2023-02-02T14:20:06.757Z,15.18
2023-02-02T14:21:09.227Z,13.52
2023-02-02T14:22:12.345Z,13.88
2023-02-02T14:23:52.792Z,15.48
2023-02-02T14:24:54.972Z,14.35
2023-02-02T14:26:09.414Z,14.43
2023-02-02T14:27:11.539Z,14.90
2023-02-02T14:28:41.300Z,12.13
2023-02-02T14:29:46.994Z,14.60
2023-02-02T14:31:27.623Z,14.55
2023-02-02T14:32:34.538Z,15.60
2023-02-02T14:33:47.575Z,11.70
2023-02-02T14:34:53.911Z,16.13
2023-02-02T14:36:03.430Z,16.05
2023-02-02T14:37:20.691Z,12.93
2023-02-02T14:38:53.403Z,15.93
2023-02-02T14:40:07.485Z,15.13
2023-02-02T14:42:14.077Z,17.20
2023-02-02T14:43:51.234Z,15.23
2023-02-02T14:45:11.895Z,15.40
2023-02-02T14:46:13.776Z,16.92
2023-02-02T14:47:43.102Z,12.57
2023-02-02T14:48:49.893Z,17.73
2023-02-02T14:49:57.953Z,20.83
2023-02-02T14:51:02.929Z,12.75
2023-02-02T14:52:05.851Z,17.00
2023-02-02T14:53:08.619Z,16.98
2023-02-02T14:54:28.577Z,14.73
2023-02-02T14:55:31.247Z,9.32
2023-02-02T14:56:50.088Z,16.10
2023-02-02T14:57:58.537Z,15.73
2023-02-02T14:59:02.555Z,16.67
2023-02-02T15:00:05.419Z,15.75
2023-02-02T15:01:23.730Z,18.08
2023-02-02T15:02:35.020Z,15.93
2023-02-02T15:03:42.938Z,17.27